createdAt,value
2023-04-20T00:00:31.020Z,5.43
2023-04-20T00:02:58.843Z,5.50
2023-04-20T00:05:27.213Z,5.65
2023-04-20T00:07:54.913Z,4.78
2023-04-20T00:10:24.046Z,5.72
2023-04-20T00:12:51.747Z,5.70
2023-04-20T00:15:19.342Z,6.47
2023-04-20T00:17:48.687Z,6.30
2023-04-20T00:20:16.210Z,5.35
2023-04-20T00:22:43.656Z,6.50
2023-04-20T00:25:11.412Z,6.80
2023-04-20T00:27:39.396Z,5.90
2023-04-20T00:30:07.913Z,6.70
2023-04-20T00:32:35.445Z,6.80
2023-04-20T00:35:02.996Z,6.90
2023-04-20T00:37:31.076Z,6.30
2023-04-20T00:39:58.557Z,6.88
2023-04-20T00:42:26.178Z,6.53
2023-04-20T00:44:53.709Z,6.40
2023-04-20T00:47:22.908Z,6.43
2023-04-20T00:49:51.946Z,6.40
2023-04-20T00:52:22.097Z,6.05
2023-04-20T00:54:49.838Z,5.93
2023-04-20T00:57:24.023Z,5.72
2023-04-20T00:59:51.854Z,5.90
2023-04-20T01:02:19.482Z,5.77
2023-04-20T01:04:48.000Z,5.53
2023-04-20T01:07:15.770Z,5.32
2023-04-20T01:09:43.524Z,5.30
2023-04-20T01:12:11.775Z,5.10
2023-04-20T01:14:39.414Z,5.10
2023-04-20T01:17:07.058Z,5.10
2023-04-20T01:19:34.526Z,4.77
2023-04-20T01:22:03.156Z,5.03
2023-04-20T01:24:30.801Z,5.10
2023-04-20T01:27:01.857Z,4.68
2023-04-20T01:29:29.880Z,5.00
2023-04-20T01:31:57.441Z,4.90
2023-04-20T01:34:25.961Z,4.95
2023-04-20T01:36:54.485Z,5.03
2023-04-20T01:39:22.222Z,5.23
2023-04-20T01:41:50.013Z,4.97
2023-04-20T01:44:18.312Z,4.70
2023-04-20T01:46:46.058Z,5.10
2023-04-20T01:49:14.012Z,4.57
2023-04-20T01:51:41.501Z,4.20
2023-04-20T01:54:09.091Z,5.10
2023-04-20T01:56:37.062Z,4.40
2023-04-20T01:59:04.912Z,4.30
2023-04-20T02:01:34.542Z,4.15
2023-04-20T02:04:02.206Z,4.50
2023-04-20T02:06:29.832Z,4.70
2023-04-20T02:08:57.644Z,5.17
2023-04-20T02:11:25.178Z,5.05
2023-04-20T02:13:52.673Z,4.57
2023-04-20T02:16:21.869Z,5.32
2023-04-20T02:18:49.627Z,4.78
2023-04-20T02:21:17.208Z,5.10
2023-04-20T02:23:44.732Z,5.43
2023-04-20T02:26:12.361Z,4.97
2023-04-20T02:28:41.161Z,5.40
2023-04-20T02:31:09.004Z,5.53
2023-04-20T02:33:36.679Z,5.35
2023-04-20T02:36:04.814Z,5.37
2023-04-20T02:38:33.282Z,5.18
2023-04-20T02:41:01.200Z,5.53
2023-04-20T02:43:29.223Z,5.65
2023-04-20T02:45:56.896Z,5.43
2023-04-20T02:48:24.706Z,6.20
2023-04-20T02:50:58.102Z,6.63
2023-04-20T02:53:27.706Z,6.60
2023-04-20T02:56:21.695Z,6.30
2023-04-20T02:58:55.400Z,6.72
2023-04-20T03:01:28.045Z,5.78
2023-04-20T03:04:04.768Z,5.43
2023-04-20T03:06:38.669Z,6.40
2023-04-20T03:09:09.038Z,6.00
2023-04-20T03:11:50.261Z,5.72
2023-04-20T03:14:32.337Z,5.50
2023-04-20T03:17:00.019Z,5.95
2023-04-20T03:19:27.537Z,5.70
2023-04-20T03:21:55.259Z,5.50
2023-04-20T03:24:23.981Z,5.13
2023-04-20T03:26:52.423Z,5.45
2023-04-20T03:29:28.392Z,5.93
2023-04-20T03:31:56.041Z,5.17
2023-04-20T03:34:23.904Z,4.72
2023-04-20T03:36:51.700Z,6.15
2023-04-20T03:39:19.354Z,5.88
2023-04-20T03:41:47.052Z,6.07
2023-04-20T03:44:15.306Z,6.77
2023-04-20T03:46:42.863Z,5.90
2023-04-20T03:49:10.408Z,5.47
2023-04-20T03:51:40.011Z,4.97
2023-04-20T03:54:07.597Z,4.70
2023-04-20T03:56:35.422Z,5.05
2023-04-20T03:59:03.113Z,5.32
2023-04-20T04:01:31.901Z,5.13
2023-04-20T04:03:59.821Z,5.13
2023-04-20T04:06:27.594Z,4.47
2023-04-20T04:08:55.599Z,4.57
2023-04-20T04:11:25.540Z,4.88
2023-04-20T04:13:53.407Z,4.78
2023-04-20T04:16:21.061Z,4.90
2023-04-20T04:18:50.167Z,4.95
2023-04-20T04:21:17.758Z,5.10
2023-04-20T04:23:52.047Z,5.05
2023-04-20T04:29:00.066Z,5.00
2023-04-20T04:31:29.218Z,4.30
2023-04-20T04:34:03.789Z,4.63
2023-04-20T04:36:39.891Z,5.10
2023-04-20T04:39:11.000Z,5.47
2023-04-20T04:41:42.126Z,5.07
2023-04-20T04:44:21.297Z,4.90
2023-04-20T04:46:49.445Z,4.40
2023-04-20T04:51:45.615Z,3.30
2023-04-20T04:54:13.061Z,3.95
2023-04-20T04:56:40.980Z,4.03
2023-04-20T04:59:08.492Z,3.53
2023-04-20T05:01:36.219Z,3.63
2023-04-20T05:04:03.904Z,5.13
2023-04-20T05:06:32.637Z,4.20
2023-04-20T05:09:00.104Z,4.60
2023-04-20T05:11:27.564Z,4.10
2023-04-20T05:13:55.072Z,3.85
2023-04-20T05:16:22.749Z,5.05
2023-04-20T05:18:50.261Z,4.03
2023-04-20T05:21:17.718Z,3.93
2023-04-20T05:23:45.232Z,3.67
2023-04-20T05:26:12.696Z,3.60
2023-04-20T05:28:40.356Z,3.93
2023-04-20T05:31:08.098Z,3.78
2023-04-20T05:33:35.705Z,4.20
2023-04-20T05:36:03.418Z,3.95
2023-04-20T05:38:30.971Z,3.40
2023-04-20T05:40:58.573Z,3.90
2023-04-20T05:43:26.332Z,5.68
2023-04-20T05:45:53.925Z,4.00
2023-04-20T05:48:21.519Z,3.42
2023-04-20T05:50:49.013Z,3.90
2023-04-20T05:53:16.731Z,4.13
2023-04-20T05:55:44.154Z,3.55
2023-04-20T05:58:18.030Z,4.03
2023-04-20T06:00:46.213Z,3.22
2023-04-20T06:03:13.840Z,3.83
2023-04-20T06:05:41.629Z,3.80
2023-04-20T06:08:09.369Z,3.72
2023-04-20T06:10:36.888Z,3.65
2023-04-20T06:13:04.485Z,3.30
2023-04-20T06:15:32.132Z,3.55
2023-04-20T06:18:00.821Z,3.85
2023-04-20T06:20:28.798Z,3.88
2023-04-20T06:25:24.262Z,4.80
2023-04-20T06:27:52.769Z,4.10
2023-04-20T06:30:20.965Z,4.95
2023-04-20T06:32:48.476Z,4.38
2023-04-20T06:35:16.211Z,4.63
2023-04-20T06:37:43.784Z,4.60
2023-04-20T06:40:11.858Z,4.90
2023-04-20T06:42:40.165Z,4.68
2023-04-20T06:45:09.074Z,4.45
2023-04-20T06:47:36.855Z,4.68
2023-04-20T06:50:09.866Z,4.63
2023-04-20T06:52:39.419Z,4.78
2023-04-20T06:55:08.038Z,3.90
2023-04-20T06:57:37.270Z,4.40
2023-04-20T07:00:08.918Z,4.93
2023-04-20T07:02:48.005Z,5.60
2023-04-20T07:05:17.442Z,4.60
2023-04-20T07:07:45.878Z,4.43
2023-04-20T07:10:16.159Z,4.93
2023-04-20T07:12:44.648Z,4.28
2023-04-20T07:15:12.827Z,4.50
2023-04-20T07:17:40.882Z,4.45
2023-04-20T07:20:09.410Z,4.40
2023-04-20T07:22:38.706Z,5.07
2023-04-20T07:25:09.232Z,4.13
2023-04-20T07:27:41.102Z,4.90
2023-04-20T07:30:10.763Z,4.80
2023-04-20T07:32:40.891Z,5.07
2023-04-20T07:35:09.731Z,4.55
2023-04-20T07:37:37.393Z,4.65
2023-04-20T07:42:37.102Z,4.68
2023-04-20T07:45:06.991Z,4.85
2023-04-20T07:47:35.403Z,5.38
2023-04-20T07:50:07.266Z,5.55
2023-04-20T07:52:34.725Z,5.70
2023-04-20T07:55:02.448Z,5.05
2023-04-20T07:57:30.074Z,4.10
2023-04-20T07:59:57.784Z,4.25
2023-04-20T08:02:25.649Z,4.10
2023-04-20T08:04:53.624Z,3.67
2023-04-20T08:09:48.618Z,3.67
2023-04-20T08:12:16.223Z,4.30
2023-04-20T08:14:43.882Z,3.70
2023-04-20T08:17:11.455Z,4.90
2023-04-20T08:19:40.002Z,4.68
2023-04-20T08:22:08.631Z,4.63
2023-04-20T08:24:36.256Z,5.32
2023-04-20T08:27:03.789Z,4.90
2023-04-20T08:29:31.328Z,4.70
2023-04-20T08:31:58.883Z,7.18
2023-04-20T08:34:26.364Z,5.78
2023-04-20T08:36:53.858Z,5.32
2023-04-20T08:39:24.370Z,4.25
2023-04-20T08:41:55.434Z,3.90
2023-04-20T08:44:24.464Z,3.70
2023-04-20T08:46:52.259Z,3.72
2023-04-20T08:49:21.613Z,4.55
2023-04-20T08:51:49.652Z,4.25
2023-04-20T08:59:15.634Z,3.40
2023-04-20T09:01:44.769Z,3.30
2023-04-20T09:04:27.243Z,3.60
2023-04-20T09:06:56.594Z,4.70
2023-04-20T09:09:27.652Z,4.55
2023-04-20T09:12:10.305Z,5.40
2023-04-20T09:14:45.843Z,4.80
2023-04-20T09:17:16.152Z,5.20
2023-04-20T09:19:53.788Z,4.30
2023-04-20T09:24:59.979Z,3.85
2023-04-20T09:27:27.955Z,4.88
2023-04-20T09:32:32.982Z,4.60
2023-04-20T09:35:00.605Z,4.10
2023-04-20T09:37:28.198Z,3.67
2023-04-20T09:40:00.860Z,3.40
2023-04-20T09:42:30.162Z,3.40
2023-04-20T09:44:58.263Z,2.70
2023-04-20T09:49:56.183Z,2.90
2023-04-20T09:52:26.399Z,3.03
2023-04-20T09:54:55.452Z,3.05
2023-04-20T09:57:25.643Z,2.70
2023-04-20T09:59:54.648Z,3.17
2023-04-20T10:02:22.262Z,2.83
2023-04-20T10:05:01.867Z,2.75
2023-04-20T10:07:33.260Z,3.30
2023-04-20T10:10:12.710Z,2.63
2023-04-20T10:13:01.441Z,2.53
2023-04-20T10:15:40.932Z,2.83
2023-04-20T10:18:25.092Z,2.50
2023-04-20T10:21:07.110Z,3.10
2023-04-20T10:23:34.857Z,2.75
2023-04-20T10:28:42.992Z,3.10
2023-04-20T10:31:16.988Z,2.55
2023-04-20T10:33:56.174Z,2.65
2023-04-20T10:36:31.073Z,3.80
2023-04-20T10:39:00.520Z,2.58
2023-04-20T10:41:28.174Z,2.47
2023-04-20T10:43:55.725Z,2.60
2023-04-20T10:46:24.837Z,2.88
2023-04-20T10:48:53.920Z,2.95
2023-04-20T10:51:22.566Z,2.70
2023-04-20T10:54:06.006Z,2.80
2023-04-20T10:56:47.326Z,2.78
2023-04-20T10:59:21.617Z,2.85
2023-04-20T11:01:51.418Z,2.80
2023-04-20T11:04:19.417Z,2.40
2023-04-20T11:06:48.435Z,2.67
2023-04-20T11:09:28.408Z,2.85
2023-04-20T11:12:04.042Z,2.47
2023-04-20T11:15:03.115Z,2.80
2023-04-20T11:17:39.146Z,2.30
2023-04-20T11:20:13.337Z,2.25
2023-04-20T11:22:43.016Z,2.10
2023-04-20T11:25:12.716Z,2.58
2023-04-20T11:27:42.148Z,2.50
2023-04-20T11:30:10.356Z,2.45
2023-04-20T11:32:38.311Z,2.30
2023-04-20T11:35:10.915Z,2.38
2023-04-20T11:37:51.363Z,2.30
2023-04-20T11:40:19.833Z,2.58
2023-04-20T11:42:47.331Z,2.47
2023-04-20T11:45:15.798Z,3.00
2023-04-20T11:47:43.695Z,3.00
2023-04-20T11:52:39.086Z,3.20
2023-04-20T11:55:07.441Z,3.22
2023-04-20T11:57:35.016Z,4.18
2023-04-20T12:00:04.269Z,5.63
2023-04-20T12:02:41.338Z,5.80
2023-04-20T12:05:09.816Z,3.45
2023-04-20T12:07:37.507Z,3.00
2023-04-20T12:10:06.826Z,3.13
2023-04-20T12:12:34.314Z,3.15
2023-04-20T12:15:01.963Z,3.40
2023-04-20T12:17:29.532Z,4.22
2023-04-20T12:19:57.971Z,3.10
2023-04-20T12:22:25.504Z,3.10
2023-04-20T12:24:52.967Z,2.50
2023-04-20T12:27:20.490Z,2.80
2023-04-20T12:29:48.011Z,2.78
2023-04-20T12:32:15.600Z,2.70
2023-04-20T12:34:43.149Z,2.92
2023-04-20T12:37:11.125Z,2.90
2023-04-20T12:42:06.001Z,2.80
2023-04-20T12:44:33.557Z,2.67
2023-04-20T12:47:01.196Z,2.60
2023-04-20T12:49:28.702Z,2.55
2023-04-20T12:51:56.309Z,2.92
2023-04-20T12:54:23.772Z,3.42
2023-04-20T12:56:51.637Z,3.55
2023-04-20T13:01:46.464Z,2.67
2023-04-20T13:04:16.129Z,3.03
2023-04-20T13:06:43.966Z,3.30
2023-04-20T13:09:11.568Z,3.25
2023-04-20T13:11:39.162Z,3.00
2023-04-20T13:14:06.765Z,3.50
2023-04-20T13:16:34.268Z,3.80
2023-04-20T13:19:01.872Z,3.30
2023-04-20T13:21:29.294Z,3.90
2023-04-20T13:23:57.116Z,3.75
2023-04-20T13:26:24.775Z,4.10
2023-04-20T13:28:52.594Z,3.30
2023-04-20T13:31:20.064Z,3.42
2023-04-20T13:33:47.596Z,3.25
2023-04-20T13:36:15.436Z,3.30
2023-04-20T13:38:43.355Z,3.58
2023-04-20T13:41:10.958Z,3.67
2023-04-20T13:43:38.483Z,3.42
2023-04-20T13:46:06.417Z,3.70
2023-04-20T13:51:01.468Z,3.10
2023-04-20T13:53:28.982Z,3.20
2023-04-20T13:55:57.770Z,3.40
2023-04-20T13:58:28.793Z,2.88
2023-04-20T14:00:56.408Z,2.90
2023-04-20T14:03:26.145Z,2.47
2023-04-20T14:05:54.072Z,2.30
2023-04-20T14:08:23.437Z,2.28
2023-04-20T14:10:51.172Z,2.58
2023-04-20T14:13:18.863Z,2.60
2023-04-20T14:15:46.316Z,2.38
2023-04-20T14:18:13.992Z,2.22
2023-04-20T14:20:41.615Z,3.00
2023-04-20T14:23:09.770Z,3.20
2023-04-20T14:28:05.182Z,2.80
2023-04-20T14:30:32.700Z,2.67
2023-04-20T14:33:01.111Z,2.70
2023-04-20T14:35:28.886Z,3.08
2023-04-20T14:37:56.353Z,2.58
2023-04-20T14:40:23.894Z,2.70
2023-04-20T14:42:51.483Z,2.20
2023-04-20T14:45:19.314Z,2.13
2023-04-20T14:47:46.889Z,2.05
2023-04-20T14:50:14.362Z,2.50
2023-04-20T14:52:41.863Z,2.20
2023-04-20T14:55:09.594Z,2.38
2023-04-20T14:57:37.091Z,2.20
2023-04-20T15:00:06.444Z,2.20
2023-04-20T15:02:34.222Z,2.15
2023-04-20T15:05:01.978Z,2.10
2023-04-20T15:07:29.842Z,2.38
2023-04-20T15:09:57.354Z,2.50
2023-04-20T15:12:24.799Z,1.92
2023-04-20T15:14:52.329Z,1.70
2023-04-20T15:17:19.976Z,2.10
2023-04-20T15:19:47.445Z,2.10
2023-04-20T15:22:15.496Z,2.40
2023-04-20T15:24:43.000Z,2.30
2023-04-20T15:27:11.340Z,2.33
2023-04-20T15:32:06.583Z,2.25
2023-04-20T15:34:34.117Z,2.08
2023-04-20T15:37:01.794Z,2.25
2023-04-20T15:39:29.222Z,2.35
2023-04-20T15:41:57.781Z,3.03
2023-04-20T15:44:26.047Z,3.30
2023-04-20T15:49:21.048Z,8.18
2023-04-20T15:51:48.678Z,7.05
2023-04-20T15:54:16.430Z,4.63
2023-04-20T15:56:44.123Z,4.40
2023-04-20T15:59:11.604Z,5.50
2023-04-20T16:01:39.255Z,7.82
2023-04-20T16:04:07.305Z,6.90
2023-04-20T16:09:04.567Z,5.30
2023-04-20T16:11:32.072Z,6.10
2023-04-20T16:13:59.754Z,6.57
2023-04-20T16:16:27.430Z,6.35
2023-04-20T16:18:55.471Z,6.55
2023-04-20T16:21:23.443Z,6.50
2023-04-20T16:23:55.275Z,9.77
2023-04-20T16:26:25.646Z,9.43
2023-04-20T16:28:54.226Z,7.05
2023-04-20T16:31:21.768Z,5.95
2023-04-20T16:33:49.290Z,5.80
2023-04-20T16:36:16.816Z,5.87
2023-04-20T16:38:44.839Z,7.10
2023-04-20T16:41:12.382Z,7.65
2023-04-20T16:43:41.037Z,11.10
2023-04-20T16:46:13.425Z,10.70
2023-04-20T16:48:40.902Z,9.68
2023-04-20T16:51:08.601Z,5.37
2023-04-20T16:53:36.105Z,4.30
2023-04-20T16:56:03.635Z,4.70
2023-04-20T16:58:31.501Z,5.93
2023-04-20T17:00:59.017Z,5.45
2023-04-20T17:03:26.811Z,7.15
2023-04-20T17:05:54.497Z,10.27
2023-04-20T17:08:22.272Z,9.30
2023-04-20T17:10:49.759Z,22.23
2023-04-20T17:13:17.521Z,27.27
2023-04-20T17:15:46.278Z,16.88
2023-04-20T17:18:13.781Z,10.15
2023-04-20T17:20:42.103Z,7.40
2023-04-20T17:25:37.213Z,6.63
2023-04-20T17:28:05.003Z,7.55
2023-04-20T17:30:32.543Z,7.95
2023-04-20T17:33:00.769Z,12.90
2023-04-20T17:35:28.332Z,15.65
2023-04-20T17:37:55.884Z,13.85
2023-04-20T17:40:23.406Z,6.93
2023-04-20T17:42:51.012Z,6.10
2023-04-20T17:45:18.684Z,5.38
2023-04-20T17:47:46.668Z,5.82
2023-04-20T17:50:16.480Z,6.07
2023-04-20T17:52:44.009Z,4.97
2023-04-20T17:55:12.040Z,4.50
2023-04-20T17:57:39.907Z,4.55
2023-04-20T18:00:11.528Z,5.28
2023-04-20T18:02:42.393Z,6.30
2023-04-20T18:05:10.562Z,7.65
2023-04-20T18:07:38.102Z,8.38
2023-04-20T18:10:06.423Z,8.20
2023-04-20T18:12:33.990Z,11.20
2023-04-20T18:15:01.716Z,12.27
2023-04-20T18:17:29.367Z,9.57
2023-04-20T18:19:56.920Z,8.47
2023-04-20T18:22:24.397Z,7.63
2023-04-20T18:24:51.993Z,8.93
2023-04-20T18:27:19.545Z,13.13
2023-04-20T18:29:47.197Z,13.48
2023-04-20T18:32:16.449Z,12.37
2023-04-20T18:34:44.234Z,10.20
2023-04-20T18:37:14.922Z,10.68
2023-04-20T18:39:42.398Z,11.27
2023-04-20T18:42:10.207Z,11.40
2023-04-20T18:44:37.747Z,14.63
2023-04-20T18:47:05.468Z,11.75
2023-04-20T18:49:34.847Z,7.22
2023-04-20T18:52:02.859Z,7.85
2023-04-20T18:54:30.373Z,10.05
2023-04-20T18:56:58.370Z,13.77
2023-04-20T18:59:26.084Z,11.10
2023-04-20T19:01:53.650Z,10.60
2023-04-20T19:04:21.440Z,13.80
2023-04-20T19:06:49.409Z,9.13
2023-04-20T19:09:17.013Z,6.93
2023-04-20T19:11:44.522Z,8.20
2023-04-20T19:14:12.305Z,6.73
2023-04-20T19:16:40.235Z,6.10
2023-04-20T19:19:08.076Z,6.50
2023-04-20T19:21:35.667Z,7.05
2023-04-20T19:24:03.259Z,7.80
2023-04-20T19:26:30.784Z,8.70
2023-04-20T19:28:59.991Z,9.73
2023-04-20T19:31:32.258Z,10.48
2023-04-20T19:33:59.908Z,9.18
2023-04-20T19:36:27.401Z,8.55
2023-04-20T19:38:54.826Z,8.55
2023-04-20T19:41:22.390Z,6.50
2023-04-20T19:43:49.837Z,7.03
2023-04-20T19:46:17.421Z,7.10
2023-04-20T19:48:45.416Z,9.63
2023-04-20T19:51:12.884Z,12.95
2023-04-20T19:53:40.458Z,17.02
2023-04-20T19:56:08.142Z,12.65
2023-04-20T19:58:35.761Z,9.07
2023-04-20T20:01:04.641Z,8.07
2023-04-20T20:03:32.301Z,7.00
2023-04-20T20:06:00.834Z,6.40
2023-04-20T20:08:28.473Z,7.70
2023-04-20T20:10:56.207Z,7.95
2023-04-20T20:13:23.787Z,7.70
2023-04-20T20:15:51.773Z,7.53
2023-04-20T20:18:20.547Z,7.75
2023-04-20T20:20:49.314Z,7.93
2023-04-20T20:23:18.228Z,7.68
2023-04-20T20:25:46.222Z,7.43
2023-04-20T20:28:14.356Z,6.43
2023-04-20T20:30:45.119Z,6.18
2023-04-20T20:33:12.978Z,6.85
2023-04-20T20:35:42.543Z,5.38
2023-04-20T20:38:10.937Z,6.30
2023-04-20T20:40:40.006Z,5.95
2023-04-20T20:43:08.586Z,5.90
2023-04-20T20:45:37.251Z,5.45
2023-04-20T20:48:05.095Z,5.45
2023-04-20T20:50:32.752Z,6.05
2023-04-20T20:53:00.397Z,5.63
2023-04-20T20:55:27.846Z,5.23
2023-04-20T20:57:55.401Z,6.32
2023-04-20T21:00:22.952Z,5.50
2023-04-20T21:02:50.850Z,5.73
2023-04-20T21:05:19.013Z,5.72
2023-04-20T21:07:46.473Z,5.70
2023-04-20T21:10:15.212Z,6.47
2023-04-20T21:12:42.697Z,6.50
2023-04-20T21:15:11.216Z,6.38
2023-04-20T21:20:09.130Z,5.95
2023-04-20T21:22:36.700Z,5.45
2023-04-20T21:25:04.625Z,5.70
2023-04-20T21:27:32.116Z,5.45
2023-04-20T21:29:59.576Z,5.87
2023-04-20T21:32:27.034Z,5.78
2023-04-20T21:34:54.713Z,5.83
2023-04-20T21:37:22.193Z,7.10
2023-04-20T21:39:51.113Z,7.57
2023-04-20T21:42:18.661Z,6.05
2023-04-20T21:44:46.240Z,6.50
2023-04-20T21:47:13.676Z,7.32
2023-04-20T21:49:41.067Z,6.47
2023-04-20T21:52:08.573Z,6.70
2023-04-20T21:54:36.102Z,6.33
2023-04-20T21:57:03.869Z,5.80
2023-04-20T21:59:31.403Z,6.15
2023-04-20T22:01:59.228Z,6.90
2023-04-20T22:04:27.456Z,7.15
2023-04-20T22:06:55.556Z,6.53
2023-04-20T22:09:23.288Z,6.63
2023-04-20T22:11:50.751Z,6.38
2023-04-20T22:14:18.172Z,6.32
2023-04-20T22:16:46.107Z,6.43
2023-04-20T22:19:13.702Z,6.85
2023-04-20T22:21:43.166Z,6.35
2023-04-20T22:24:10.592Z,6.65
2023-04-20T22:26:38.282Z,7.53
2023-04-20T22:29:05.792Z,7.07
2023-04-20T22:31:33.265Z,6.97
2023-04-20T22:34:00.732Z,7.70
2023-04-20T22:36:28.227Z,7.50
2023-04-20T22:38:55.866Z,8.35
2023-04-20T22:41:23.391Z,7.80
2023-04-20T22:43:50.810Z,7.15
2023-04-20T22:46:18.344Z,7.03
2023-04-20T22:48:48.547Z,7.07
2023-04-20T22:51:17.360Z,7.47
2023-04-20T22:53:45.122Z,7.78
2023-04-20T22:56:14.298Z,7.03
2023-04-20T22:58:41.974Z,7.67
2023-04-20T23:01:09.456Z,7.37
2023-04-20T23:03:37.307Z,7.45
2023-04-20T23:06:05.433Z,7.32
2023-04-20T23:08:33.540Z,7.50
2023-04-20T23:11:01.138Z,7.78
2023-04-20T23:13:28.689Z,7.73
2023-04-20T23:15:56.205Z,7.27
2023-04-20T23:18:23.982Z,7.07
2023-04-20T23:20:51.414Z,7.27
2023-04-20T23:23:18.916Z,7.40
2023-04-20T23:25:46.368Z,7.10
2023-04-20T23:28:13.944Z,6.97
2023-04-20T23:30:41.459Z,7.00
2023-04-20T23:33:09.009Z,7.00
2023-04-20T23:35:39.310Z,6.70
2023-04-20T23:38:06.796Z,7.15
2023-04-20T23:40:34.462Z,6.82
2023-04-20T23:43:01.904Z,6.90
2023-04-20T23:45:29.329Z,7.32
2023-04-20T23:47:56.823Z,7.70
2023-04-20T23:50:25.490Z,6.93
2023-04-20T23:52:52.979Z,7.80
2023-04-20T23:55:20.505Z,6.97
2023-04-20T23:57:48.059Z,6.88
